sensor_id;sensor_type;location;lat;lon;timestamp;pressure;altitude;pressure_sealevel;temperature;humidity
7668;BME280;3876;42.204;24.686;2022-10-16T00:01:18;100130.22;;;12.54;93.74
7668;BME280;3876;42.204;24.686;2022-10-16T00:03:46;100141.25;;;12.57;93.83
7668;BME280;3876;42.204;24.686;2022-10-16T00:06:14;100140.34;;;12.60;93.67
7668;BME280;3876;42.204;24.686;2022-10-16T00:08:41;100143.81;;;12.59;93.17
7668;BME280;3876;42.204;24.686;2022-10-16T00:11:10;100142.97;;;12.57;93.70
7668;BME280;3876;42.204;24.686;2022-10-16T00:13:41;100143.13;;;12.52;93.19
7668;BME280;3876;42.204;24.686;2022-10-16T00:16:09;100148.28;;;12.52;93.99
7668;BME280;3876;42.204;24.686;2022-10-16T00:18:37;100142.28;;;12.52;93.87
7668;BME280;3876;42.204;24.686;2022-10-16T00:21:05;100149.81;;;12.58;93.62
7668;BME280;3876;42.204;24.686;2022-10-16T00:23:33;100142.88;;;12.61;93.60
7668;BME280;3876;42.204;24.686;2022-10-16T00:26:02;100143.59;;;12.67;93.29
7668;BME280;3876;42.204;24.686;2022-10-16T00:28:30;100136.78;;;12.66;92.82
7668;BME280;3876;42.204;24.686;2022-10-16T00:30:58;100143.53;;;12.70;92.56
7668;BME280;3876;42.204;24.686;2022-10-16T00:33:25;100140.97;;;12.68;92.41
7668;BME280;3876;42.204;24.686;2022-10-16T00:35:51;100147.94;;;12.64;92.51
7668;BME280;3876;42.204;24.686;2022-10-16T00:38:18;100140.28;;;12.63;92.87
7668;BME280;3876;42.204;24.686;2022-10-16T00:40:45;100147.16;;;12.62;92.60
7668;BME280;3876;42.204;24.686;2022-10-16T00:43:14;100132.84;;;12.52;92.35
7668;BME280;3876;42.204;24.686;2022-10-16T00:45:41;100153.22;;;12.60;92.57
7668;BME280;3876;42.204;24.686;2022-10-16T00:48:12;100155.16;;;12.50;93.07
7668;BME280;3876;42.204;24.686;2022-10-16T00:50:40;100159.59;;;12.45;93.00
7668;BME280;3876;42.204;24.686;2022-10-16T00:53:10;100140.44;;;12.23;93.65
7668;BME280;3876;42.204;24.686;2022-10-16T00:55:37;100156.81;;;12.21;94.44
7668;BME280;3876;42.204;24.686;2022-10-16T00:58:04;100167.84;;;12.24;94.64
7668;BME280;3876;42.204;24.686;2022-10-16T01:00:31;100171.31;;;12.22;94.61
7668;BME280;3876;42.204;24.686;2022-10-16T01:02:59;100172.09;;;12.25;94.56
7668;BME280;3876;42.204;24.686;2022-10-16T01:05:33;100173.81;;;12.25;94.88
7668;BME280;3876;42.204;24.686;2022-10-16T01:08:07;100178.06;;;12.27;94.51
7668;BME280;3876;42.204;24.686;2022-10-16T01:10:38;100185.84;;;12.24;94.32
7668;BME280;3876;42.204;24.686;2022-10-16T01:13:09;100192.63;;;12.27;94.43
7668;BME280;3876;42.204;24.686;2022-10-16T01:15:41;100185.81;;;12.26;94.39
7668;BME280;3876;42.204;24.686;2022-10-16T01:18:14;100190.91;;;12.27;94.15
7668;BME280;3876;42.204;24.686;2022-10-16T01:20:48;100187.44;;;12.28;93.79
7668;BME280;3876;42.204;24.686;2022-10-16T01:23:36;100189.13;;;12.31;93.71
7668;BME280;3876;42.204;24.686;2022-10-16T01:26:14;100185.78;;;12.27;93.53
7668;BME280;3876;42.204;24.686;2022-10-16T01:28:52;100189.22;;;12.26;92.36
7668;BME280;3876;42.204;24.686;2022-10-16T01:31:25;100200.38;;;12.25;91.93
7668;BME280;3876;42.204;24.686;2022-10-16T01:33:58;100198.72;;;12.24;90.82
7668;BME280;3876;42.204;24.686;2022-10-16T01:36:31;100203.06;;;12.21;90.86
7668;BME280;3876;42.204;24.686;2022-10-16T01:39:03;100197.94;;;12.19;91.37
7668;BME280;3876;42.204;24.686;2022-10-16T01:41:34;100198.88;;;12.17;91.18
7668;BME280;3876;42.204;24.686;2022-10-16T01:44:06;100200.59;;;12.16;91.58
7668;BME280;3876;42.204;24.686;2022-10-16T01:46:36;100204.19;;;12.09;90.92
7668;BME280;3876;42.204;24.686;2022-10-16T01:49:06;100210.25;;;12.06;91.47
7668;BME280;3876;42.204;24.686;2022-10-16T01:51:34;100207.84;;;12.00;92.00
7668;BME280;3876;42.204;24.686;2022-10-16T01:54:05;100203.63;;;11.96;91.97
7668;BME280;3876;42.204;24.686;2022-10-16T01:56:34;100204.69;;;11.88;92.36
7668;BME280;3876;42.204;24.686;2022-10-16T01:59:06;100209.97;;;11.82;93.02
7668;BME280;3876;42.204;24.686;2022-10-16T02:01:35;100208.34;;;11.78;93.10
7668;BME280;3876;42.204;24.686;2022-10-16T02:04:08;100212.69;;;11.74;93.39
7668;BME280;3876;42.204;24.686;2022-10-16T02:06:35;100210.19;;;11.73;93.73
7668;BME280;3876;42.204;24.686;2022-10-16T02:09:02;100208.50;;;11.72;93.47
7668;BME280;3876;42.204;24.686;2022-10-16T02:11:29;100208.53;;;11.67;93.64
7668;BME280;3876;42.204;24.686;2022-10-16T02:13:59;100207.03;;;11.57;94.02
7668;BME280;3876;42.204;24.686;2022-10-16T02:16:34;100208.72;;;11.59;93.70
7668;BME280;3876;42.204;24.686;2022-10-16T02:19:03;100229.38;;;11.53;93.52
7668;BME280;3876;42.204;24.686;2022-10-16T02:21:35;100223.47;;;11.50;94.05
7668;BME280;3876;42.204;24.686;2022-10-16T02:24:11;100220.13;;;11.46;94.00
7668;BME280;3876;42.204;24.686;2022-10-16T02:26:44;100220.97;;;11.47;94.07
7668;BME280;3876;42.204;24.686;2022-10-16T02:29:16;100220.09;;;11.48;93.66
7668;BME280;3876;42.204;24.686;2022-10-16T02:31:48;100220.91;;;11.50;93.26
7668;BME280;3876;42.204;24.686;2022-10-16T02:34:18;100211.72;;;11.38;93.42
7668;BME280;3876;42.204;24.686;2022-10-16T02:36:48;100226.22;;;11.41;93.07
7668;BME280;3876;42.204;24.686;2022-10-16T02:39:17;100231.47;;;11.36;93.06
7668;BME280;3876;42.204;24.686;2022-10-16T02:41:45;100238.31;;;11.36;92.90
7668;BME280;3876;42.204;24.686;2022-10-16T02:44:11;100244.31;;;11.35;92.77
7668;BME280;3876;42.204;24.686;2022-10-16T02:46:38;100239.22;;;11.33;93.13
7668;BME280;3876;42.204;24.686;2022-10-16T02:49:07;100241.00;;;11.30;93.34
7668;BME280;3876;42.204;24.686;2022-10-16T02:51:33;100246.31;;;11.21;93.32
7668;BME280;3876;42.204;24.686;2022-10-16T02:54:01;100242.13;;;11.15;93.66
7668;BME280;3876;42.204;24.686;2022-10-16T02:56:28;100244.75;;;11.14;93.53
7668;BME280;3876;42.204;24.686;2022-10-16T02:58:55;100243.09;;;11.11;94.11
7668;BME280;3876;42.204;24.686;2022-10-16T03:01:22;100242.25;;;11.09;94.34
7668;BME280;3876;42.204;24.686;2022-10-16T03:03:49;100235.53;;;11.03;94.78
7668;BME280;3876;42.204;24.686;2022-10-16T03:06:17;100244.94;;;11.03;95.33
7668;BME280;3876;42.204;24.686;2022-10-16T03:08:44;100254.41;;;11.01;95.07
7668;BME280;3876;42.204;24.686;2022-10-16T03:11:11;100249.34;;;10.96;94.72
7668;BME280;3876;42.204;24.686;2022-10-16T03:13:38;100250.25;;;10.94;94.92
7668;BME280;3876;42.204;24.686;2022-10-16T03:16:05;100254.66;;;10.86;94.56
7668;BME280;3876;42.204;24.686;2022-10-16T03:18:31;100259.72;;;10.89;94.53
7668;BME280;3876;42.204;24.686;2022-10-16T03:20:58;100241.34;;;10.66;94.82
7668;BME280;3876;42.204;24.686;2022-10-16T03:23:26;100266.81;;;10.75;94.54
7668;BME280;3876;42.204;24.686;2022-10-16T03:25:54;100272.06;;;10.69;95.00
7668;BME280;3876;42.204;24.686;2022-10-16T03:28:21;100274.69;;;10.64;95.03
7668;BME280;3876;42.204;24.686;2022-10-16T03:30:47;100273.03;;;10.60;95.19
7668;BME280;3876;42.204;24.686;2022-10-16T03:33:14;100273.03;;;10.60;95.34
7668;BME280;3876;42.204;24.686;2022-10-16T03:35:41;100277.38;;;10.57;95.96
7668;BME280;3876;42.204;24.686;2022-10-16T03:38:08;100276.66;;;10.48;95.81
7668;BME280;3876;42.204;24.686;2022-10-16T03:40:36;100278.38;;;10.49;95.88
7668;BME280;3876;42.204;24.686;2022-10-16T03:43:03;100277.53;;;10.47;95.87
7668;BME280;3876;42.204;24.686;2022-10-16T03:45:30;100270.72;;;10.46;95.82
7668;BME280;3876;42.204;24.686;2022-10-16T03:47:56;100281.03;;;10.40;96.03
7668;BME280;3876;42.204;24.686;2022-10-16T03:50:24;100276.75;;;10.42;95.47
7668;BME280;3876;42.204;24.686;2022-10-16T03:52:50;100275.97;;;10.37;95.47
7668;BME280;3876;42.204;24.686;2022-10-16T03:55:17;100285.41;;;10.35;95.69
7668;BME280;3876;42.204;24.686;2022-10-16T03:57:45;100290.53;;;10.35;95.90
7668;BME280;3876;42.204;24.686;2022-10-16T04:00:12;100287.16;;;10.33;95.75
7668;BME280;3876;42.204;24.686;2022-10-16T04:02:40;100288.06;;;10.29;96.13
7668;BME280;3876;42.204;24.686;2022-10-16T04:05:07;100287.25;;;10.27;96.39
7668;BME280;3876;42.204;24.686;2022-10-16T04:07:34;100280.44;;;10.25;96.72
7668;BME280;3876;42.204;24.686;2022-10-16T04:10:01;100287.25;;;10.26;96.78
7668;BME280;3876;42.204;24.686;2022-10-16T04:12:27;100281.38;;;10.19;96.90
7668;BME280;3876;42.204;24.686;2022-10-16T04:14:56;100284.81;;;10.18;97.49
7668;BME280;3876;42.204;24.686;2022-10-16T04:17:22;100283.88;;;10.24;97.16
7668;BME280;3876;42.204;24.686;2022-10-16T04:19:49;100284.75;;;10.21;97.29
7668;BME280;3876;42.204;24.686;2022-10-16T04:22:16;100281.41;;;10.18;97.58
7668;BME280;3876;42.204;24.686;2022-10-16T04:24:43;100284.81;;;10.18;96.92
7668;BME280;3876;42.204;24.686;2022-10-16T04:27:10;100266.16;;;10.07;97.52
7668;BME280;3876;42.204;24.686;2022-10-16T04:29:36;100286.56;;;10.13;97.47
7668;BME280;3876;42.204;24.686;2022-10-16T04:32:05;100285.69;;;10.16;97.25
7668;BME280;3876;42.204;24.686;2022-10-16T04:34:31;100286.56;;;10.16;96.95
7668;BME280;3876;42.204;24.686;2022-10-16T04:36:58;100285.72;;;10.13;97.57
7668;BME280;3876;42.204;24.686;2022-10-16T04:39:25;100281.53;;;10.06;97.44
7668;BME280;3876;42.204;24.686;2022-10-16T04:41:52;100285.81;;;10.05;97.78
7668;BME280;3876;42.204;24.686;2022-10-16T04:44:19;100281.63;;;10.01;97.85
7668;BME280;3876;42.204;24.686;2022-10-16T04:46:45;100291.88;;;9.99;97.79
7668;BME280;3876;42.204;24.686;2022-10-16T04:49:14;100286.84;;;9.93;97.60
7668;BME280;3876;42.204;24.686;2022-10-16T04:51:40;100296.13;;;10.00;97.20
7668;BME280;3876;42.204;24.686;2022-10-16T04:54:08;100308.94;;;9.99;96.52
7668;BME280;3876;42.204;24.686;2022-10-16T04:56:35;100292.03;;;9.86;97.11
7668;BME280;3876;42.204;24.686;2022-10-16T04:59:08;100307.34;;;9.92;97.01
7668;BME280;3876;42.204;24.686;2022-10-16T05:01:35;100301.44;;;9.88;97.22
7668;BME280;3876;42.204;24.686;2022-10-16T05:04:02;100302.25;;;9.90;97.55
7668;BME280;3876;42.204;24.686;2022-10-16T05:06:30;100305.66;;;9.91;97.39
7668;BME280;3876;42.204;24.686;2022-10-16T05:08:57;100313.34;;;9.89;98.06
7668;BME280;3876;42.204;24.686;2022-10-16T05:11:24;100315.00;;;9.92;97.56
7668;BME280;3876;42.204;24.686;2022-10-16T05:13:50;100316.75;;;9.91;98.16
7668;BME280;3876;42.204;24.686;2022-10-16T05:16:17;100324.47;;;9.88;98.09
7668;BME280;3876;42.204;24.686;2022-10-16T05:18:44;100314.38;;;9.78;97.66
7668;BME280;3876;42.204;24.686;2022-10-16T05:21:11;100327.88;;;9.89;98.15
7668;BME280;3876;42.204;24.686;2022-10-16T05:23:39;100335.53;;;9.89;98.29
7668;BME280;3876;42.204;24.686;2022-10-16T05:26:06;100332.13;;;9.91;98.10
7668;BME280;3876;42.204;24.686;2022-10-16T05:28:33;100336.34;;;9.94;98.43
7668;BME280;3876;42.204;24.686;2022-10-16T05:31:04;100332.94;;;9.92;98.97
7668;BME280;3876;42.204;24.686;2022-10-16T05:33:31;100345.75;;;9.95;99.45
7668;BME280;3876;42.204;24.686;2022-10-16T05:36:01;100344.91;;;9.93;99.36
7668;BME280;3876;42.204;24.686;2022-10-16T05:38:29;100348.25;;;9.98;99.52
7668;BME280;3876;42.204;24.686;2022-10-16T05:40:57;100354.19;;;10.01;99.76
7668;BME280;3876;42.204;24.686;2022-10-16T05:43:24;100347.41;;;9.96;99.50
7668;BME280;3876;42.204;24.686;2022-10-16T05:45:55;100367.00;;;10.00;100.00
7668;BME280;3876;42.204;24.686;2022-10-16T05:48:23;100364.50;;;9.97;100.00
7668;BME280;3876;42.204;24.686;2022-10-16T05:50:57;100367.00;;;10.00;100.00
7668;BME280;3876;42.204;24.686;2022-10-16T05:53:24;100367.88;;;9.99;100.00
7668;BME280;3876;42.204;24.686;2022-10-16T05:55:52;100373.88;;;9.98;100.00
7668;BME280;3876;42.204;24.686;2022-10-16T05:58:21;100383.22;;;10.00;100.00
7668;BME280;3876;42.204;24.686;2022-10-16T06:00:58;100378.03;;;10.05;100.00
7668;BME280;3876;42.204;24.686;2022-10-16T06:03:25;100382.22;;;10.15;100.00
7668;BME280;3876;42.204;24.686;2022-10-16T06:05:52;100380.53;;;10.11;100.00
7668;BME280;3876;42.204;24.686;2022-10-16T06:08:21;100382.09;;;10.24;100.00
7668;BME280;3876;42.204;24.686;2022-10-16T06:10:48;100377.72;;;10.32;100.00
7668;BME280;3876;42.204;24.686;2022-10-16T06:13:15;100378.50;;;10.37;100.00
7668;BME280;3876;42.204;24.686;2022-10-16T06:15:43;100383.56;;;10.40;100.00
7668;BME280;3876;42.204;24.686;2022-10-16T06:18:10;100384.38;;;10.44;100.00
7668;BME280;3876;42.204;24.686;2022-10-16T06:20:37;100390.28;;;10.50;100.00
7668;BME280;3876;42.204;24.686;2022-10-16T06:23:04;100387.59;;;10.60;100.00
7668;BME280;3876;42.204;24.686;2022-10-16T06:25:31;100393.44;;;10.68;100.00
7668;BME280;3876;42.204;24.686;2022-10-16T06:27:58;100393.34;;;10.74;100.00
7668;BME280;3876;42.204;24.686;2022-10-16T06:30:25;100396.66;;;10.82;100.00
7668;BME280;3876;42.204;24.686;2022-10-16T06:32:53;100403.34;;;10.92;100.00
7668;BME280;3876;42.204;24.686;2022-10-16T06:35:20;100398.94;;;11.00;100.00
7668;BME280;3876;42.204;24.686;2022-10-16T06:37:47;100413.41;;;11.04;100.00
7668;BME280;3876;42.204;24.686;2022-10-16T06:40:14;100403.91;;;11.11;100.00
7668;BME280;3876;42.204;24.686;2022-10-16T06:42:41;100409.78;;;11.17;100.00
7668;BME280;3876;42.204;24.686;2022-10-16T06:45:09;100406.25;;;11.24;100.00
7668;BME280;3876;42.204;24.686;2022-10-16T06:47:36;100421.50;;;11.33;100.00
7668;BME280;3876;42.204;24.686;2022-10-16T06:50:05;100404.34;;;11.35;100.00
7668;BME280;3876;42.204;24.686;2022-10-16T06:52:33;100414.50;;;11.41;100.00
7668;BME280;3876;42.204;24.686;2022-10-16T06:55:00;100410.94;;;11.48;100.00
7668;BME280;3876;42.204;24.686;2022-10-16T06:57:28;100415.91;;;11.57;100.00
7668;BME280;3876;42.204;24.686;2022-10-16T06:59:54;100414.78;;;11.75;100.00
7668;BME280;3876;42.204;24.686;2022-10-16T07:02:21;100423.91;;;11.90;100.00
7668;BME280;3876;42.204;24.686;2022-10-16T07:04:48;100417.53;;;12.09;100.00
7668;BME280;3876;42.204;24.686;2022-10-16T07:07:16;100424.75;;;12.33;100.00
7668;BME280;3876;42.204;24.686;2022-10-16T07:09:43;100432.09;;;12.50;100.00
7668;BME280;3876;42.204;24.686;2022-10-16T07:12:10;100431.59;;;12.73;100.00
7668;BME280;3876;42.204;24.686;2022-10-16T07:14:37;100432.81;;;12.93;100.00
7668;BME280;3876;42.204;24.686;2022-10-16T07:17:03;100434.88;;;13.16;98.72
7668;BME280;3876;42.204;24.686;2022-10-16T07:19:30;100435.16;;;13.39;96.88
7668;BME280;3876;42.204;24.686;2022-10-16T07:21:57;100434.06;;;13.49;96.39
7668;BME280;3876;42.204;24.686;2022-10-16T07:24:25;100440.50;;;13.65;95.89
7668;BME280;3876;42.204;24.686;2022-10-16T07:26:52;100440.00;;;13.84;95.19
7668;BME280;3876;42.204;24.686;2022-10-16T07:29:20;100425.69;;;14.04;94.07
7668;BME280;3876;42.204;24.686;2022-10-16T07:31:48;100431.88;;;14.28;91.96
7668;BME280;3876;42.204;24.686;2022-10-16T07:34:17;100428.00;;;14.44;90.59
7668;BME280;3876;42.204;24.686;2022-10-16T07:36:46;100430.16;;;14.58;89.25
7668;BME280;3876;42.204;24.686;2022-10-16T07:39:13;100429.56;;;14.78;89.80
7668;BME280;3876;42.204;24.686;2022-10-16T07:41:42;100442.59;;;15.01;89.60
7668;BME280;3876;42.204;24.686;2022-10-16T07:44:08;100442.91;;;15.18;87.97
7668;BME280;3876;42.204;24.686;2022-10-16T07:46:35;100446.31;;;15.45;86.41
7668;BME280;3876;42.204;24.686;2022-10-16T07:49:02;100438.72;;;15.66;84.49
7668;BME280;3876;42.204;24.686;2022-10-16T07:51:30;100432.28;;;15.78;85.54
7668;BME280;3876;42.204;24.686;2022-10-16T07:53:57;100439.44;;;15.95;83.65
7668;BME280;3876;42.204;24.686;2022-10-16T07:56:24;100390.88;;;15.80;83.63
7668;BME280;3876;42.204;24.686;2022-10-16T07:58:52;100428.00;;;16.02;84.22
7668;BME280;3876;42.204;24.686;2022-10-16T08:01:19;100429.56;;;16.29;83.59
7668;BME280;3876;42.204;24.686;2022-10-16T08:03:48;100430.47;;;16.28;81.34
7668;BME280;3876;42.204;24.686;2022-10-16T08:06:15;100429.78;;;16.46;81.77
7668;BME280;3876;42.204;24.686;2022-10-16T08:08:42;100424.16;;;16.58;79.99
7668;BME280;3876;42.204;24.686;2022-10-16T08:11:09;100430.31;;;16.77;80.47
7668;BME280;3876;42.204;24.686;2022-10-16T08:13:36;100440.09;;;16.93;80.12
7668;BME280;3876;42.204;24.686;2022-10-16T08:16:05;100432.59;;;17.07;79.10
7668;BME280;3876;42.204;24.686;2022-10-16T08:18:33;100428.72;;;17.17;77.12
7668;BME280;3876;42.204;24.686;2022-10-16T08:21:01;100439.31;;;17.32;77.06
7668;BME280;3876;42.204;24.686;2022-10-16T08:23:28;100443.75;;;17.51;77.72
7668;BME280;3876;42.204;24.686;2022-10-16T08:25:55;100427.09;;;17.56;76.27
7668;BME280;3876;42.204;24.686;2022-10-16T08:28:23;100438.66;;;17.69;73.78
7668;BME280;3876;42.204;24.686;2022-10-16T08:30:50;100439.81;;;17.82;74.41
7668;BME280;3876;42.204;24.686;2022-10-16T08:33:18;100436.41;;;18.01;73.33
7668;BME280;3876;42.204;24.686;2022-10-16T08:35:50;100431.59;;;18.12;72.87
7668;BME280;3876;42.204;24.686;2022-10-16T08:38:17;100439.56;;;18.26;72.66
7668;BME280;3876;42.204;24.686;2022-10-16T08:40:44;100432.31;;;18.34;71.29
7668;BME280;3876;42.204;24.686;2022-10-16T08:43:30;100441.09;;;18.50;70.92
7668;BME280;3876;42.204;24.686;2022-10-16T08:46:15;100435.44;;;18.61;70.62
7668;BME280;3876;42.204;24.686;2022-10-16T08:48:48;100434.00;;;18.72;72.55
7668;BME280;3876;42.204;24.686;2022-10-16T08:51:20;100430.50;;;18.73;69.82
7668;BME280;3876;42.204;24.686;2022-10-16T08:53:52;100432.00;;;18.77;68.54
7668;BME280;3876;42.204;24.686;2022-10-16T08:56:20;100435.94;;;18.86;69.57
7668;BME280;3876;42.204;24.686;2022-10-16T08:58:48;100432.28;;;18.90;69.52
7668;BME280;3876;42.204;24.686;2022-10-16T09:01:17;100434.34;;;19.01;70.70
7668;BME280;3876;42.204;24.686;2022-10-16T09:04:13;100438.28;;;19.09;66.51
7668;BME280;3876;42.204;24.686;2022-10-16T09:06:50;100438.84;;;19.16;65.62
7668;BME280;3876;42.204;24.686;2022-10-16T09:09:31;100429.72;;;19.24;64.54
7668;BME280;3876;42.204;24.686;2022-10-16T09:12:09;100434.69;;;19.29;66.06
7668;BME280;3876;42.204;24.686;2022-10-16T09:15:00;100428.25;;;19.36;66.31
7668;BME280;3876;42.204;24.686;2022-10-16T09:17:39;100433.03;;;19.28;63.28
7668;BME280;3876;42.204;24.686;2022-10-16T09:20:31;100433.72;;;19.31;63.20
7668;BME280;3876;42.204;24.686;2022-10-16T09:23:13;100429.84;;;19.40;64.74
7668;BME280;3876;42.204;24.686;2022-10-16T09:25:43;100429.47;;;19.29;63.84
7668;BME280;3876;42.204;24.686;2022-10-16T09:28:10;100428.97;;;19.22;63.16
7668;BME280;3876;42.204;24.686;2022-10-16T09:30:37;100428.22;;;19.37;62.75
7668;BME280;3876;42.204;24.686;2022-10-16T09:33:05;100434.16;;;19.39;62.17
7668;BME280;3876;42.204;24.686;2022-10-16T09:35:37;100430.13;;;19.34;61.88
7668;BME280;3876;42.204;24.686;2022-10-16T09:38:04;100422.72;;;19.44;61.59
7668;BME280;3876;42.204;24.686;2022-10-16T09:40:33;100422.34;;;19.51;61.19
7668;BME280;3876;42.204;24.686;2022-10-16T09:43:07;100422.41;;;19.50;60.68
7668;BME280;3876;42.204;24.686;2022-10-16T09:45:39;100419.22;;;19.45;61.59
7668;BME280;3876;42.204;24.686;2022-10-16T09:48:10;100415.16;;;19.56;60.52
7668;BME280;3876;42.204;24.686;2022-10-16T09:50:39;100423.00;;;19.72;61.14
7668;BME280;3876;42.204;24.686;2022-10-16T09:53:11;100404.25;;;19.82;63.61
7668;BME280;3876;42.204;24.686;2022-10-16T09:55:48;100407.25;;;19.90;62.49
7668;BME280;3876;42.204;24.686;2022-10-16T09:58:15;100404.78;;;20.05;61.06
7668;BME280;3876;42.204;24.686;2022-10-16T10:00:42;100406.66;;;20.03;55.99
7668;BME280;3876;42.204;24.686;2022-10-16T10:03:24;100396.28;;;19.85;56.94
7668;BME280;3876;42.204;24.686;2022-10-16T10:05:58;100396.56;;;19.97;59.09
7668;BME280;3876;42.204;24.686;2022-10-16T10:08:25;100381.47;;;20.03;56.88
7668;BME280;3876;42.204;24.686;2022-10-16T10:10:52;100392.41;;;20.25;54.70
7668;BME280;3876;42.204;24.686;2022-10-16T10:13:21;100385.88;;;20.34;57.68
7668;BME280;3876;42.204;24.686;2022-10-16T10:15:48;100375.72;;;20.45;56.05
7668;BME280;3876;42.204;24.686;2022-10-16T10:18:17;100384.03;;;20.52;54.64
7668;BME280;3876;42.204;24.686;2022-10-16T10:20:45;100382.16;;;20.54;54.28
7668;BME280;3876;42.204;24.686;2022-10-16T10:23:22;100381.47;;;20.66;56.35
7668;BME280;3876;42.204;24.686;2022-10-16T10:25:53;100377.69;;;20.71;52.49
7668;BME280;3876;42.204;24.686;2022-10-16T10:28:46;100366.38;;;20.41;53.73
7668;BME280;3876;42.204;24.686;2022-10-16T10:31:20;100356.75;;;20.10;55.00
7668;BME280;3876;42.204;24.686;2022-10-16T10:33:56;100359.78;;;20.03;54.80
7668;BME280;3876;42.204;24.686;2022-10-16T10:36:30;100359.28;;;20.12;55.06
7668;BME280;3876;42.204;24.686;2022-10-16T10:39:03;100354.75;;;20.15;53.51
7668;BME280;3876;42.204;24.686;2022-10-16T10:44:37;100355.63;;;20.31;52.34
7668;BME280;3876;42.204;24.686;2022-10-16T10:47:17;100350.75;;;20.41;55.54
7668;BME280;3876;42.204;24.686;2022-10-16T10:49:57;100351.25;;;20.48;55.36
7668;BME280;3876;42.204;24.686;2022-10-16T10:52:37;100353.25;;;20.58;52.77
7668;BME280;3876;42.204;24.686;2022-10-16T10:55:17;100350.03;;;20.69;50.67
7668;BME280;3876;42.204;24.686;2022-10-16T10:57:58;100347.59;;;20.66;51.61
7668;BME280;3876;42.204;24.686;2022-10-16T11:00:39;100344.78;;;20.55;51.14
7668;BME280;3876;42.204;24.686;2022-10-16T11:03:16;100348.03;;;20.58;52.36
7668;BME280;3876;42.204;24.686;2022-10-16T11:05:48;100339.63;;;20.69;50.70
7668;BME280;3876;42.204;24.686;2022-10-16T11:08:18;100343.63;;;20.74;52.01
7668;BME280;3876;42.204;24.686;2022-10-16T11:10:52;100341.63;;;20.79;51.83
7668;BME280;3876;42.204;24.686;2022-10-16T11:13:30;100336.47;;;20.93;51.01
7668;BME280;3876;42.204;24.686;2022-10-16T11:16:00;100336.78;;;20.87;51.83
7668;BME280;3876;42.204;24.686;2022-10-16T11:18:32;100331.75;;;20.84;50.78
7668;BME280;3876;42.204;24.686;2022-10-16T11:21:07;100336.41;;;20.79;48.83
7668;BME280;3876;42.204;24.686;2022-10-16T11:23:38;100333.38;;;20.87;50.28
7668;BME280;3876;42.204;24.686;2022-10-16T11:26:14;100333.00;;;20.93;52.22
7668;BME280;3876;42.204;24.686;2022-10-16T11:28:45;100318.22;;;20.93;51.27
7668;BME280;3876;42.204;24.686;2022-10-16T11:31:17;100328.09;;;21.03;50.38
7668;BME280;3876;42.204;24.686;2022-10-16T11:33:49;100322.72;;;21.06;49.82
7668;BME280;3876;42.204;24.686;2022-10-16T11:36:22;100315.97;;;21.02;50.67
7668;BME280;3876;42.204;24.686;2022-10-16T11:38:56;100319.03;;;21.10;50.89
7668;BME280;3876;42.204;24.686;2022-10-16T11:41:31;100312.47;;;20.73;50.66
7668;BME280;3876;42.204;24.686;2022-10-16T11:44:16;100311.84;;;20.83;50.33
7668;BME280;3876;42.204;24.686;2022-10-16T11:46:49;100311.13;;;20.95;52.33
7668;BME280;3876;42.204;24.686;2022-10-16T11:49:20;100305.63;;;20.86;50.75
7668;BME280;3876;42.204;24.686;2022-10-16T11:51:51;100311.50;;;20.89;52.01
7668;BME280;3876;42.204;24.686;2022-10-16T11:54:27;100313.31;;;20.87;50.14
7668;BME280;3876;42.204;24.686;2022-10-16T11:57:01;100303.06;;;20.70;49.44
7668;BME280;3876;42.204;24.686;2022-10-16T11:59:32;100290.03;;;20.70;49.75
7668;BME280;3876;42.204;24.686;2022-10-16T12:05:06;100318.56;;;20.42;51.31
7668;BME280;3876;42.204;24.686;2022-10-16T12:07:41;100313.78;;;20.34;52.58
7668;BME280;3876;42.204;24.686;2022-10-16T12:10:11;100317.47;;;20.46;52.45
7668;BME280;3876;42.204;24.686;2022-10-16T12:12:46;100318.81;;;20.37;52.10
7668;BME280;3876;42.204;24.686;2022-10-16T12:15:22;100315.31;;;20.38;51.56
7668;BME280;3876;42.204;24.686;2022-10-16T12:17:50;100320.59;;;20.37;51.96
7668;BME280;3876;42.204;24.686;2022-10-16T12:20:24;100309.75;;;20.45;52.01
7668;BME280;3876;42.204;24.686;2022-10-16T12:22:53;100316.63;;;20.61;51.91
7668;BME280;3876;42.204;24.686;2022-10-16T12:25:24;100318.94;;;20.66;51.25
7668;BME280;3876;42.204;24.686;2022-10-16T12:28:03;100319.78;;;20.66;50.86
7668;BME280;3876;42.204;24.686;2022-10-16T12:30:32;100314.16;;;20.74;50.59
7668;BME280;3876;42.204;24.686;2022-10-16T12:33:02;100313.69;;;20.81;50.49
7668;BME280;3876;42.204;24.686;2022-10-16T12:35:30;100315.88;;;20.89;51.90
7668;BME280;3876;42.204;24.686;2022-10-16T12:38:15;100318.22;;;20.93;49.81
7668;BME280;3876;42.204;24.686;2022-10-16T12:40:43;100312.81;;;20.97;50.42
7668;BME280;3876;42.204;24.686;2022-10-16T12:43:26;100308.91;;;21.04;50.53
7668;BME280;3876;42.204;24.686;2022-10-16T12:46:01;100312.63;;;21.00;51.00
7668;BME280;3876;42.204;24.686;2022-10-16T12:48:28;100314.47;;;20.98;49.15
7668;BME280;3876;42.204;24.686;2022-10-16T12:50:56;100322.88;;;21.03;49.44
7668;BME280;3876;42.204;24.686;2022-10-16T12:53:24;100319.66;;;21.13;50.74
7668;BME280;3876;42.204;24.686;2022-10-16T12:56:01;100327.59;;;21.12;49.89
7668;BME280;3876;42.204;24.686;2022-10-16T12:58:54;100325.53;;;21.17;50.22
7668;BME280;3876;42.204;24.686;2022-10-16T13:01:33;100326.03;;;20.93;49.74
7668;BME280;3876;42.204;24.686;2022-10-16T13:04:30;100336.66;;;21.05;51.02
7668;BME280;3876;42.204;24.686;2022-10-16T13:07:15;100327.75;;;21.09;51.32
7668;BME280;3876;42.204;24.686;2022-10-16T13:09:55;100328.66;;;21.08;50.38
7668;BME280;3876;42.204;24.686;2022-10-16T13:12:45;100342.06;;;21.02;50.41
7668;BME280;3876;42.204;24.686;2022-10-16T13:15:34;100330.59;;;20.90;49.14
7668;BME280;3876;42.204;24.686;2022-10-16T13:18:11;100333.97;;;20.76;50.12
7668;BME280;3876;42.204;24.686;2022-10-16T13:20:53;100321.31;;;20.70;50.15
7668;BME280;3876;42.204;24.686;2022-10-16T13:23:25;100329.69;;;20.75;50.78